createdAt,value
2023-02-02T00:02:02.319Z,98791.44
2023-02-02T00:04:31.454Z,98788.88
2023-02-02T00:06:58.789Z,98785.09
2023-02-02T00:09:28.980Z,98788.81
2023-02-02T00:11:56.294Z,98790.15
2023-02-02T00:14:23.329Z,98787.73
2023-02-02T00:16:51.789Z,98783.59
2023-02-02T00:19:20.600Z,98785.09
2023-02-02T00:21:48.101Z,98785.41
2023-02-02T00:24:18.189Z,98775.98
2023-02-02T00:26:46.428Z,98777.70
2023-02-02T00:29:18.019Z,98780.95
2023-02-02T00:31:44.870Z,98775.48
2023-02-02T00:34:12.836Z,98775.45
2023-02-02T00:36:39.774Z,98770.67
2023-02-02T00:39:06.766Z,98774.28
2023-02-02T00:41:33.656Z,98774.13
2023-02-02T00:44:17.994Z,98776.22
2023-02-02T00:46:45.120Z,98777.09
2023-02-02T00:49:12.046Z,98774.88
2023-02-02T00:51:39.389Z,98776.77
2023-02-02T00:54:06.433Z,98771.69
2023-02-02T00:56:33.821Z,98770.88
2023-02-02T00:59:00.784Z,98771.06
2023-02-02T01:01:27.718Z,98774.45
2023-02-02T01:03:56.171Z,98767.41
2023-02-02T01:06:23.280Z,98771.41
2023-02-02T01:08:50.130Z,98772.70
2023-02-02T01:11:17.196Z,98765.63
2023-02-02T01:13:43.987Z,98768.53
2023-02-02T01:16:12.567Z,98769.34
2023-02-02T01:18:40.031Z,98768.28
2023-02-02T01:21:09.477Z,98773.05
2023-02-02T01:23:37.779Z,98767.33
2023-02-02T01:26:06.756Z,98767.95
2023-02-02T01:28:33.621Z,98764.78
2023-02-02T01:31:06.340Z,98760.59
2023-02-02T01:33:33.342Z,98758.91
2023-02-02T01:36:00.167Z,98757.46
2023-02-02T01:38:27.596Z,98764.70
2023-02-02T01:40:56.466Z,98766.12
2023-02-02T01:43:27.970Z,98766.00
2023-02-02T01:45:56.390Z,98767.59
2023-02-02T01:48:25.680Z,98769.13
2023-02-02T01:50:56.828Z,98768.28
2023-02-02T01:53:24.167Z,98768.61
2023-02-02T01:55:53.429Z,98763.95
2023-02-02T01:58:24.600Z,98766.80
2023-02-02T02:00:52.063Z,98767.60
2023-02-02T02:03:22.088Z,98768.06
2023-02-02T02:05:52.980Z,98766.84
2023-02-02T02:08:24.663Z,98771.09
2023-02-02T02:10:52.028Z,98766.27
2023-02-02T02:13:21.749Z,98764.18
2023-02-02T02:16:14.389Z,98766.85
2023-02-02T02:18:51.479Z,98768.02
2023-02-02T02:21:54.940Z,98771.09
2023-02-02T02:25:12.403Z,98765.77
2023-02-02T02:28:12.069Z,98770.19
2023-02-02T02:31:09.720Z,98765.25
2023-02-02T02:33:37.265Z,98763.89
2023-02-02T02:36:11.898Z,98771.11
2023-02-02T02:38:44.888Z,98767.73
2023-02-02T02:41:17.892Z,98767.63
2023-02-02T02:43:50.350Z,98768.16
2023-02-02T02:46:17.858Z,98772.30
2023-02-02T02:48:47.790Z,98772.85
2023-02-02T02:51:47.758Z,98771.18
2023-02-02T02:54:23.421Z,98773.08
2023-02-02T02:57:08.119Z,98772.38
2023-02-02T02:59:47.009Z,98771.68
2023-02-02T03:02:31.124Z,98772.29
2023-02-02T03:05:09.048Z,98772.78
2023-02-02T03:07:40.183Z,98775.14
2023-02-02T03:10:11.650Z,98773.19
2023-02-02T03:12:46.835Z,98770.58
2023-02-02T03:15:15.516Z,98772.01
2023-02-02T03:17:43.833Z,98773.13
2023-02-02T03:20:12.645Z,98773.25
2023-02-02T03:22:39.627Z,98775.41
2023-02-02T03:25:07.556Z,98771.58
2023-02-02T03:27:35.017Z,98771.34
2023-02-02T03:30:02.249Z,98771.75
2023-02-02T03:32:29.307Z,98766.91
2023-02-02T03:34:56.125Z,98770.25
2023-02-02T03:37:23.087Z,98765.90
2023-02-02T03:39:49.926Z,98768.91
2023-02-02T03:42:16.889Z,98766.10
2023-02-02T03:44:43.685Z,98768.96
2023-02-02T03:47:10.857Z,98771.16
2023-02-02T03:49:37.619Z,98774.04
2023-02-02T03:52:05.059Z,98771.79
2023-02-02T03:54:32.411Z,98773.28
2023-02-02T03:56:59.284Z,98774.09
2023-02-02T03:59:26.270Z,98773.00
2023-02-02T04:01:53.232Z,98770.70
2023-02-02T04:04:20.345Z,98771.36
2023-02-02T04:06:47.238Z,98773.20
2023-02-02T04:09:14.083Z,98771.98
2023-02-02T04:11:40.824Z,98766.81
2023-02-02T04:14:07.578Z,98769.34
2023-02-02T04:16:37.198Z,98768.98
2023-02-02T04:19:04.002Z,98769.79
2023-02-02T04:21:31.161Z,98772.66
2023-02-02T04:23:58.539Z,98766.29
2023-02-02T04:26:26.311Z,98769.33
2023-02-02T04:28:53.134Z,98769.30
2023-02-02T04:31:20.037Z,98772.19
2023-02-02T04:33:46.866Z,98771.65
2023-02-02T04:36:13.867Z,98778.14
2023-02-02T04:38:40.617Z,98775.71
2023-02-02T04:41:11.733Z,98778.44
2023-02-02T04:43:39.174Z,98777.90
2023-02-02T04:46:06.758Z,98778.57
2023-02-02T04:48:33.836Z,98771.02
2023-02-02T04:51:04.830Z,98771.77
2023-02-02T04:53:32.322Z,98771.02
2023-02-02T04:55:59.666Z,98771.92
2023-02-02T04:58:26.501Z,98776.54
2023-02-02T05:00:53.658Z,98774.65
2023-02-02T05:03:21.005Z,98775.00
2023-02-02T05:05:48.042Z,98772.44
2023-02-02T05:08:14.801Z,98772.95
2023-02-02T05:10:43.600Z,98774.52
2023-02-02T05:13:10.835Z,98775.36
2023-02-02T05:15:37.883Z,98776.05
2023-02-02T05:18:04.799Z,98776.40
2023-02-02T05:20:31.634Z,98778.62
2023-02-02T05:22:58.506Z,98776.56
2023-02-02T05:25:25.519Z,98776.38
2023-02-02T05:27:52.791Z,98778.77
2023-02-02T05:30:20.349Z,98775.66
2023-02-02T05:32:47.187Z,98776.50
2023-02-02T05:35:14.509Z,98775.27
2023-02-02T05:37:43.254Z,98772.52
2023-02-02T05:40:12.450Z,98773.70
2023-02-02T05:42:39.256Z,98767.66
2023-02-02T05:45:07.075Z,98770.55
2023-02-02T05:47:35.756Z,98778.43
2023-02-02T05:50:03.389Z,98778.39
2023-02-02T05:52:38.412Z,98777.89
2023-02-02T05:55:05.906Z,98777.52
2023-02-02T05:57:32.719Z,98774.57
2023-02-02T05:59:59.610Z,98772.63
2023-02-02T06:02:26.527Z,98770.23
2023-02-02T06:04:53.563Z,98771.94
2023-02-02T06:07:20.638Z,98775.00
2023-02-02T06:09:47.465Z,98771.57
2023-02-02T06:12:14.311Z,98773.59
2023-02-02T06:14:41.058Z,98776.66
2023-02-02T06:17:08.081Z,98771.84
2023-02-02T06:19:34.926Z,98773.66
2023-02-02T06:22:01.987Z,98769.67
2023-02-02T06:24:30.405Z,98772.56
2023-02-02T06:26:57.413Z,98771.16
2023-02-02T06:29:24.887Z,98774.02
2023-02-02T06:31:51.752Z,98772.14
2023-02-02T06:34:18.925Z,98771.63
2023-02-02T06:36:45.829Z,98773.98
2023-02-02T06:39:12.724Z,98771.70
2023-02-02T06:41:40.476Z,98766.55
2023-02-02T06:44:07.458Z,98772.03
2023-02-02T06:46:34.212Z,98773.02
2023-02-02T06:49:00.993Z,98774.20
2023-02-02T06:51:28.272Z,98770.08
2023-02-02T06:53:56.145Z,98767.85
2023-02-02T06:56:24.695Z,98763.09
2023-02-02T06:58:51.481Z,98758.82
2023-02-02T07:01:18.769Z,98753.70
2023-02-02T07:03:49.274Z,98754.94
2023-02-02T07:06:21.164Z,98758.86
2023-02-02T07:08:57.504Z,98756.69
2023-02-02T07:11:30.364Z,98758.07
2023-02-02T07:13:57.640Z,98754.11
2023-02-02T07:16:24.551Z,98753.86
2023-02-02T07:18:51.740Z,98753.22
2023-02-02T07:21:21.366Z,98752.67
2023-02-02T07:23:48.297Z,98757.31
2023-02-02T07:26:16.230Z,98753.97
2023-02-02T07:28:43.556Z,98750.79
2023-02-02T07:31:19.387Z,98753.34
2023-02-02T07:33:47.933Z,98754.25
2023-02-02T07:36:17.372Z,98746.92
2023-02-02T07:38:44.728Z,98753.65
2023-02-02T07:41:11.675Z,98754.84
2023-02-02T07:43:39.019Z,98761.69
2023-02-02T07:46:08.446Z,98762.11
2023-02-02T07:48:35.952Z,98764.88
2023-02-02T07:51:04.344Z,98766.27
2023-02-02T07:53:31.729Z,98764.73
2023-02-02T07:56:08.873Z,98765.42
2023-02-02T07:58:35.934Z,98766.61
2023-02-02T08:01:05.646Z,98760.63
2023-02-02T08:03:32.519Z,98769.24
2023-02-02T08:06:00.406Z,98767.73
2023-02-02T08:08:27.252Z,98767.33
2023-02-02T08:10:55.296Z,98771.05
2023-02-02T08:13:22.817Z,98774.46
2023-02-02T08:15:49.851Z,98771.08
2023-02-02T08:18:17.122Z,98771.39
2023-02-02T08:20:44.120Z,98778.80
2023-02-02T08:23:15.752Z,98776.41
2023-02-02T08:25:42.868Z,98777.68
2023-02-02T08:28:09.852Z,98780.13
2023-02-02T08:30:37.013Z,98778.34
2023-02-02T08:33:03.806Z,98776.86
2023-02-02T08:35:31.095Z,98779.33
2023-02-02T08:37:57.898Z,98786.63
2023-02-02T08:40:25.576Z,98786.03
2023-02-02T08:42:56.028Z,98786.74
2023-02-02T08:46:02.510Z,98789.50
2023-02-02T08:48:12.697Z,98786.48
2023-02-02T08:50:39.819Z,98791.45
2023-02-02T08:53:06.716Z,98796.07
2023-02-02T08:55:33.589Z,98793.66
2023-02-02T08:58:02.655Z,98797.59
2023-02-02T09:00:29.704Z,98794.71
2023-02-02T09:02:56.576Z,98790.75
2023-02-02T09:05:24.150Z,98796.12
2023-02-02T09:07:51.266Z,98798.09
2023-02-02T09:10:19.565Z,98796.61
2023-02-02T09:12:46.510Z,98795.77
2023-02-02T09:15:13.839Z,98797.86
2023-02-02T09:17:40.827Z,98797.96
2023-02-02T09:20:09.592Z,98803.37
2023-02-02T09:22:36.717Z,98801.58
2023-02-02T09:25:03.647Z,98803.66
2023-02-02T09:27:30.383Z,98805.12
2023-02-02T09:29:57.189Z,98811.56
2023-02-02T09:32:24.097Z,98811.86
2023-02-02T09:34:50.936Z,98816.59
2023-02-02T09:37:17.733Z,98820.42
2023-02-02T09:39:45.065Z,98818.92
2023-02-02T09:42:41.443Z,98823.64
2023-02-02T09:45:14.655Z,98822.72
2023-02-02T09:47:55.761Z,98830.27
2023-02-02T09:50:33.568Z,98831.61
2023-02-02T09:53:06.949Z,98837.76
2023-02-02T09:55:39.311Z,98843.71
2023-02-02T09:58:14.629Z,98844.71
2023-02-02T10:00:47.541Z,98853.44
2023-02-02T10:03:21.158Z,98856.12
2023-02-02T10:05:56.792Z,98859.30
2023-02-02T10:08:35.473Z,98866.97
2023-02-02T10:11:06.417Z,98871.36
2023-02-02T10:13:39.102Z,98869.67
2023-02-02T10:16:17.233Z,98874.04
2023-02-02T10:18:49.585Z,98875.13
2023-02-02T10:21:25.924Z,98878.86
2023-02-02T10:23:54.647Z,98884.38
2023-02-02T10:26:23.553Z,98881.79
2023-02-02T10:29:10.212Z,98886.55
2023-02-02T10:31:50.943Z,98891.36
2023-02-02T10:34:28.097Z,98894.11
2023-02-02T10:37:13.640Z,98896.86
2023-02-02T10:39:54.671Z,98900.58
2023-02-02T10:42:34.369Z,98901.24
2023-02-02T10:45:04.731Z,98910.03
2023-02-02T10:47:34.353Z,98918.14
2023-02-02T10:50:20.523Z,98921.33
2023-02-02T10:52:50.453Z,98926.91
2023-02-02T10:55:26.760Z,98926.33
2023-02-02T10:58:01.644Z,98935.18
2023-02-02T11:00:36.067Z,98941.02
2023-02-02T11:03:04.924Z,98944.65
2023-02-02T11:05:51.373Z,98949.09
2023-02-02T11:08:20.801Z,98952.36
2023-02-02T11:10:51.354Z,98952.98
2023-02-02T11:13:26.205Z,98957.89
2023-02-02T11:16:13.357Z,98960.09
2023-02-02T11:18:40.378Z,98966.58
2023-02-02T11:21:21.278Z,98966.99
2023-02-02T11:23:56.583Z,98972.02
2023-02-02T11:26:24.281Z,98975.61
2023-02-02T11:28:53.662Z,98977.58
2023-02-02T11:31:36.487Z,98976.10
2023-02-02T11:34:23.763Z,98977.23
2023-02-02T11:37:14.677Z,98983.70
2023-02-02T11:39:42.255Z,98988.00
2023-02-02T11:42:16.342Z,98987.63
2023-02-02T11:44:44.724Z,98993.41
2023-02-02T11:47:22.775Z,98995.61
2023-02-02T11:49:51.846Z,98996.00
2023-02-02T11:52:23.174Z,98998.70
2023-02-02T11:54:53.440Z,99002.23
2023-02-02T11:57:23.352Z,99010.81
2023-02-02T11:59:51.991Z,99013.49
2023-02-02T12:02:32.808Z,99015.64
2023-02-02T12:05:34.297Z,99020.67
2023-02-02T12:08:02.829Z,99023.54
2023-02-02T12:10:36.770Z,99028.31
2023-02-02T12:13:10.100Z,99030.31
2023-02-02T12:15:48.629Z,99032.86
2023-02-02T12:18:38.320Z,99037.13
2023-02-02T12:21:08.145Z,99041.16
2023-02-02T12:23:52.162Z,99045.55
2023-02-02T12:26:27.022Z,99047.17
2023-02-02T12:29:12.634Z,99050.22
2023-02-02T12:31:54.106Z,99052.45
2023-02-02T12:34:31.242Z,99062.02
2023-02-02T12:37:04.190Z,99065.60
2023-02-02T12:39:45.519Z,99074.89
2023-02-02T12:42:42.350Z,99077.45
2023-02-02T12:45:26.621Z,99084.52
2023-02-02T12:48:04.886Z,99087.41
2023-02-02T12:50:39.646Z,99091.66
2023-02-02T12:53:28.289Z,99104.36
2023-02-02T12:56:05.616Z,99110.83
2023-02-02T12:58:40.284Z,99120.16
2023-02-02T13:01:24.221Z,99119.67
2023-02-02T13:04:10.471Z,99119.80
2023-02-02T13:06:55.051Z,99129.02
2023-02-02T13:09:30.143Z,99141.77
2023-02-02T13:12:03.812Z,99151.19
2023-02-02T13:14:36.501Z,99162.83
2023-02-02T13:17:08.926Z,99168.98
2023-02-02T13:19:39.603Z,99177.27
2023-02-02T13:22:11.550Z,99180.05
2023-02-02T13:24:43.257Z,99180.09
2023-02-02T13:27:16.300Z,99176.67
2023-02-02T13:29:48.841Z,99187.54
2023-02-02T13:32:22.404Z,99194.45
2023-02-02T13:34:53.402Z,99207.32
2023-02-02T13:37:27.119Z,99210.41
2023-02-02T13:39:59.977Z,99221.02
2023-02-02T13:42:38.051Z,99231.10
2023-02-02T13:45:18.708Z,99233.05
2023-02-02T13:47:50.747Z,99242.21
2023-02-02T13:50:22.013Z,99247.73
2023-02-02T13:53:17.920Z,99246.87
2023-02-02T13:56:04.731Z,99252.48
2023-02-02T13:58:54.581Z,99252.52
2023-02-02T14:01:23.023Z,99259.04
2023-02-02T14:03:56.591Z,99262.48
2023-02-02T14:06:25.432Z,99265.42
2023-02-02T14:08:56.936Z,99270.41
2023-02-02T14:11:29.260Z,99278.41
2023-02-02T14:14:17.265Z,99284.23
2023-02-02T14:16:51.873Z,99288.91
2023-02-02T14:19:42.077Z,99294.32
2023-02-02T14:22:21.571Z,99298.05
2023-02-02T14:24:51.619Z,99305.64
2023-02-02T14:27:54.480Z,99305.18
2023-02-02T14:30:27.937Z,99317.98
2023-02-02T14:32:55.712Z,99322.86
2023-02-02T14:36:00.956Z,99328.38
2023-02-02T14:38:45.002Z,99337.63
2023-02-02T14:41:40.703Z,99338.19
2023-02-02T14:44:08.998Z,99339.83
2023-02-02T14:46:48.107Z,99343.68
2023-02-02T14:49:19.142Z,99353.90
2023-02-02T14:51:55.324Z,99362.75
2023-02-02T14:54:27.599Z,99370.70
2023-02-02T14:56:58.967Z,99378.33
2023-02-02T14:59:29.143Z,99389.02
2023-02-02T15:02:03.448Z,99395.23
2023-02-02T15:04:31.521Z,99399.73
2023-02-02T15:07:18.486Z,99403.40
2023-02-02T15:09:46.674Z,99416.02
2023-02-02T15:12:28.313Z,99421.07
2023-02-02T15:15:03.487Z,99433.14
2023-02-02T15:17:44.730Z,99443.19
2023-02-02T15:20:21.420Z,99449.81
2023-02-02T15:22:49.832Z,99446.30
2023-02-02T15:25:26.358Z,99471.74
2023-02-02T15:27:56.976Z,99483.98
2023-02-02T15:30:25.596Z,99491.06
2023-02-02T15:32:54.552Z,99498.96
2023-02-02T15:35:26.019Z,99497.08
2023-02-02T15:37:59.056Z,99498.94
2023-02-02T15:40:27.857Z,99513.11
2023-02-02T15:43:00.281Z,99521.25
2023-02-02T15:45:39.878Z,99522.14
2023-02-02T15:48:11.167Z,99525.59
2023-02-02T15:50:39.749Z,99529.71
2023-02-02T15:53:07.602Z,99533.16
2023-02-02T15:55:37.019Z,99541.56
2023-02-02T15:58:05.253Z,99553.04
2023-02-02T16:00:38.063Z,99565.37
2023-02-02T16:03:11.725Z,99575.15
2023-02-02T16:05:48.595Z,99583.39
2023-02-02T16:08:17.453Z,99589.91
2023-02-02T16:10:46.589Z,99598.63
2023-02-02T16:13:26.471Z,99604.63
2023-02-02T16:15:59.876Z,99616.45
2023-02-02T16:18:27.307Z,99617.81
2023-02-02T16:20:55.514Z,99621.59
2023-02-02T16:23:28.891Z,99619.04
2023-02-02T16:25:59.475Z,99628.45
2023-02-02T16:28:26.902Z,99632.21
2023-02-02T16:30:55.271Z,99637.34
2023-02-02T16:33:37.909Z,99640.75
2023-02-02T16:36:12.395Z,99642.31
2023-02-02T16:38:39.747Z,99649.66
2023-02-02T16:41:11.467Z,99658.20
2023-02-02T16:43:39.559Z,99662.83
2023-02-02T16:46:09.077Z,99670.01
2023-02-02T16:48:38.618Z,99674.96
2023-02-02T16:51:22.593Z,99681.14
2023-02-02T16:53:58.014Z,99687.29
2023-02-02T16:56:30.336Z,99694.14
2023-02-02T16:58:59.680Z,99702.86
2023-02-02T17:01:36.982Z,99708.17
2023-02-02T17:04:05.044Z,99714.67
2023-02-02T17:06:50.085Z,99713.98
2023-02-02T17:09:25.745Z,99718.29
2023-02-02T17:12:01.241Z,99724.96
2023-02-02T17:14:32.039Z,99730.45
2023-02-02T17:16:59.360Z,99733.02
2023-02-02T17:19:29.302Z,99739.69
2023-02-02T17:21:56.372Z,99744.48
2023-02-02T17:24:23.146Z,99749.27
2023-02-02T17:26:50.050Z,99758.17
2023-02-02T17:29:25.325Z,99766.55
2023-02-02T17:31:53.527Z,99770.13
2023-02-02T17:34:20.419Z,99774.08
2023-02-02T17:36:47.846Z,99778.19
2023-02-02T17:39:14.638Z,99784.18
2023-02-02T17:41:41.885Z,99788.47
2023-02-02T17:44:11.433Z,99790.88
2023-02-02T17:46:40.105Z,99797.20
2023-02-02T17:49:07.674Z,99799.09
2023-02-02T17:51:41.192Z,99804.92
2023-02-02T17:54:13.377Z,99807.14
2023-02-02T17:56:40.390Z,99816.41
2023-02-02T17:59:07.206Z,99811.26
2023-02-02T18:01:36.993Z,99823.44
2023-02-02T18:04:06.881Z,99832.19
2023-02-02T18:06:33.671Z,99837.52
2023-02-02T18:09:00.672Z,99842.48
2023-02-02T18:11:27.610Z,99846.77
2023-02-02T18:13:54.829Z,99850.52
2023-02-02T18:16:21.625Z,99855.34
2023-02-02T18:18:48.387Z,99862.70
2023-02-02T18:21:15.842Z,99869.73
2023-02-02T18:23:42.695Z,99874.70
2023-02-02T18:26:14.958Z,99881.38
2023-02-02T18:28:41.922Z,99885.48
2023-02-02T18:31:12.383Z,99889.61
2023-02-02T18:33:40.562Z,99891.66
2023-02-02T18:36:13.354Z,99895.59
2023-02-02T18:38:42.051Z,99899.70
2023-02-02T18:41:09.062Z,99904.48
2023-02-02T18:43:35.915Z,99915.28
2023-02-02T18:46:06.230Z,99913.23
2023-02-02T18:48:33.594Z,99913.40
2023-02-02T18:51:00.572Z,99918.53
2023-02-02T18:53:27.372Z,99921.80
2023-02-02T18:55:54.378Z,99929.52
2023-02-02T18:58:21.218Z,99933.97
2023-02-02T19:00:49.227Z,99935.52
2023-02-02T19:03:15.971Z,99945.63
2023-02-02T19:06:00.585Z,99943.56
2023-02-02T19:08:27.412Z,99954.19
2023-02-02T19:11:00.365Z,99954.19
2023-02-02T19:13:28.874Z,99958.95
2023-02-02T19:15:56.334Z,99970.60
2023-02-02T19:18:25.127Z,99976.59
2023-02-02T19:20:52.814Z,99982.93
2023-02-02T19:23:23.206Z,99990.81
2023-02-02T19:25:54.074Z,99997.83
2023-02-02T19:28:26.324Z,100004.85
2023-02-02T19:30:54.312Z,100011.36
2023-02-02T19:33:22.098Z,100014.61
2023-02-02T19:35:53.048Z,100025.74
2023-02-02T19:38:27.054Z,100033.97
2023-02-02T19:40:53.852Z,100031.05
2023-02-02T19:43:28.055Z,100038.58
2023-02-02T19:45:55.970Z,100044.41
2023-02-02T19:48:24.531Z,100037.05
2023-02-02T19:50:51.815Z,100045.27
2023-02-02T19:53:24.091Z,100055.20
2023-02-02T19:55:52.118Z,100055.01
2023-02-02T19:58:23.099Z,100059.44
2023-02-02T20:00:52.135Z,100069.52
2023-02-02T20:03:21.797Z,100079.44
2023-02-02T20:05:50.963Z,100083.20
2023-02-02T20:08:25.491Z,100091.59
2023-02-02T20:10:53.634Z,100098.59
2023-02-02T20:13:23.241Z,100105.92
2023-02-02T20:15:51.565Z,100113.29
2023-02-02T20:18:23.426Z,100124.60
2023-02-02T20:20:53.251Z,100127.02
2023-02-02T20:23:40.933Z,100129.77
2023-02-02T20:26:21.382Z,100133.70
2023-02-02T20:28:49.687Z,100138.66
2023-02-02T20:31:21.958Z,100142.43
2023-02-02T20:33:51.953Z,100149.96
2023-02-02T20:36:28.175Z,100155.27
2023-02-02T20:38:55.385Z,100160.08
2023-02-02T20:41:24.538Z,100166.07
2023-02-02T20:43:51.300Z,100167.44
2023-02-02T20:46:18.642Z,100168.63
2023-02-02T20:48:47.834Z,100166.05
2023-02-02T20:51:15.770Z,100175.77
2023-02-02T20:53:42.801Z,100176.09
2023-02-02T20:56:09.877Z,100177.44
2023-02-02T20:58:36.745Z,100186.48
2023-02-02T21:01:05.777Z,100190.55
2023-02-02T21:03:34.122Z,100193.09
2023-02-02T21:06:01.200Z,100188.61
2023-02-02T21:08:28.636Z,100193.55
2023-02-02T21:10:55.407Z,100203.73
2023-02-02T21:13:22.207Z,100209.02
2023-02-02T21:15:49.379Z,100208.30
2023-02-02T21:18:16.195Z,100211.34
2023-02-02T21:20:43.047Z,100216.95
2023-02-02T21:23:10.290Z,100224.27
2023-02-02T21:25:37.239Z,100230.94
2023-02-02T21:28:04.154Z,100235.20
2023-02-02T21:30:31.478Z,100240.86
2023-02-02T21:32:59.394Z,100246.51
2023-02-02T21:35:27.768Z,100244.96
2023-02-02T21:37:57.609Z,100248.38
2023-02-02T21:40:30.500Z,100254.37
2023-02-02T21:42:58.923Z,100256.42
2023-02-02T21:45:34.556Z,100262.23
2023-02-02T21:48:03.418Z,100267.35
2023-02-02T21:50:33.256Z,100269.91
2023-02-02T21:53:14.054Z,100264.42
2023-02-02T21:55:41.459Z,100268.50
2023-02-02T21:58:18.967Z,100278.59
2023-02-02T22:00:45.884Z,100275.67
2023-02-02T22:03:28.608Z,100287.41
2023-02-02T22:06:00.725Z,100290.80
2023-02-02T22:08:27.964Z,100295.56
2023-02-02T22:10:54.798Z,100295.02
2023-02-02T22:13:24.941Z,100290.89
2023-02-02T22:15:53.941Z,100292.88
2023-02-02T22:18:23.063Z,100296.59
2023-02-02T22:20:50.840Z,100300.65
2023-02-02T22:23:20.771Z,100307.27
2023-02-02T22:25:49.556Z,100313.73
2023-02-02T22:28:26.138Z,100317.42
2023-02-02T22:30:54.685Z,100316.18
2023-02-02T22:33:23.201Z,100315.11
2023-02-02T22:35:50.016Z,100317.29
2023-02-02T22:38:20.708Z,100317.77
2023-02-02T22:40:48.737Z,100313.97
2023-02-02T22:43:17.278Z,100316.66
2023-02-02T22:45:44.741Z,100319.73
2023-02-02T22:48:11.648Z,100331.83
2023-02-02T22:50:38.518Z,100333.35
2023-02-02T22:53:06.241Z,100338.63
2023-02-02T22:55:34.190Z,100341.17
2023-02-02T22:58:01.438Z,100343.73
2023-02-02T23:00:30.280Z,100347.65
2023-02-02T23:02:57.674Z,100347.48
2023-02-02T23:05:26.910Z,100351.26
2023-02-02T23:07:53.990Z,100355.55
2023-02-02T23:10:23.168Z,100353.34
2023-02-02T23:12:50.806Z,100360.21
2023-02-02T23:15:19.382Z,100367.91
2023-02-02T23:17:46.285Z,100372.91
2023-02-02T23:20:15.897Z,100377.58
2023-02-02T23:22:42.983Z,100382.39
2023-02-02T23:25:10.728Z,100388.92
2023-02-02T23:27:37.702Z,100387.77
2023-02-02T23:30:05.073Z,100391.89
2023-02-02T23:32:32.231Z,100391.41
2023-02-02T23:34:58.986Z,100390.77
2023-02-02T23:37:25.713Z,100386.88
2023-02-02T23:39:52.538Z,100396.64
2023-02-02T23:42:19.279Z,100405.40
2023-02-02T23:44:46.196Z,100407.14
2023-02-02T23:47:13.310Z,100410.09
2023-02-02T23:49:40.943Z,100412.36
2023-02-02T23:52:07.942Z,100413.09
2023-02-02T23:54:35.059Z,100412.77
2023-02-02T23:57:02.606Z,100415.87
2023-02-02T23:59:29.928Z,100421.70
